Ana Sayfa
METAR-TAF:

METAR-TAF

Havaalanları :

Balıkesir Koca Seyit Havalimanı

Edremit, Türkiye

Enlem: 39-33-16N, Boylam: 27-00-49E, yükseklik: 15 m

Güncel hava durumu gözlemi

Rapor saat 14:50 UTC de 6 saat ve 15 dakika önce yapıldı.
Rüzgar batı/güneybatıdan 14 kt
Sıcaklık 24°C
Nem 44%
Basınç 1012 hPa
Görüş mesafesi 10 km veya daha fazla
3500 ft yükseklikte az bulutlu
20000 ft yükseklikte parçalı bulutlu

METAR: LTFD 311450Z 25014KT 9999 FEW035 SCT200 24/11 Q1012

Saat: 00:05 (21:05 UTC)

Tahmin

Rapor saat 19:40 UTC de 1 saat ve 25 dakika önce yapıldı.
Ayın 31'si saat 21 UTC'den ayın 01'si saat 06 UTC'ye kadar geçerli Tahmin
Rüzgar değişken yönden 2 kt
Görüş mesafesi 10 km veya daha fazla
3500 ft yükseklikte parçalı bulutlu
10000 ft yükseklikte parçalı bulutlu
Geçici
ayın 31'si saat 21 UTC'den ayın 31'si saat 24 UTC'ye kadar
hafif sağanak yağmurlar

TAF: LTFD 311940Z 3121/0106 VRB02KT 9999 SCT035 SCT100 TEMPO 3121/3124 -SHRA

4.000'den fazla havaalanı için hava durumu gözlemleri ve tahminleri (METAR ve TAF raporları).

Kullanılabilir istasyonlar harita üzerinde sarı ve kırmızı noktalarla gösterilir.

İstasyonun adını görmek için fareyi noktanın üzerinde gezdirin.

Sonrasında hava gözlem ve tahminlerini görmek için tıklayın.

Haritayı değiştirmek için: yaklaştırmak için siyah artı işaretli yeşil düğmeye ve uzaklaştırmak için de eksi işaretli düğmeye hızla tıklayın; bitişik haritalar için yeşil okları kullanın.


METAR-TAF: